TimeEST,TemperatureF,Dew PointF,Humidity,Sea Level PressureIn,VisibilityMPH,Wind Direction,Wind SpeedMPH,Gust SpeedMPH,PrecipitationIn,Events,Conditions,WindDirDegrees,DateUTC
12:53 AM,70.0,66.9,90,30.12,10.0,Calm,Calm,-,N/A,,Scattered Clouds,0,2013-01-08 05:53:00
1:53 AM,70.0,68.0,93,30.11,10.0,NNW,3.5,-,0.03,,Overcast,340,2013-01-08 06:53:00
2:39 AM,71.6,69.8,94,30.10,10.0,Calm,Calm,-,0.00,,Overcast,0,2013-01-08 07:39:00
2:53 AM,71.1,69.1,93,30.10,10.0,Calm,Calm,-,0.00,,Mostly Cloudy,0,2013-01-08 07:53:00
3:53 AM,70.0,69.1,97,30.09,10.0,Calm,Calm,-,N/A,,Partly Cloudy,0,2013-01-08 08:53:00
4:53 AM,70.0,69.1,97,30.10,10.0,Calm,Calm,-,N/A,,Partly Cloudy,0,2013-01-08 09:53:00
5:53 AM,70.0,69.1,97,30.12,10.0,Calm,Calm,-,N/A,,Partly Cloudy,0,2013-01-08 10:53:00
6:53 AM,70.0,68.0,93,30.14,10.0,Calm,Calm,-,N/A,,Scattered Clouds,0,2013-01-08 11:53:00
7:53 AM,70.0,69.1,97,30.17,10.0,East,4.6,-,N/A,,Clear,90,2013-01-08 12:53:00
8:53 AM,75.9,71.1,85,30.20,10.0,East,9.2,-,N/A,,Partly Cloudy,90,2013-01-08 13:53:00
10:53 AM,80.1,69.1,69,30.21,10.0,ESE,12.7,-,N/A,,Scattered Clouds,110,2013-01-08 15:53:00
11:53 AM,82.0,70.0,67,30.19,10.0,ESE,13.8,-,N/A,,Scattered Clouds,110,2013-01-08 16:53:00
12:03 PM,80.6,69.8,70,30.18,10.0,SE,15.0,-,N/A,,Mostly Cloudy,130,2013-01-08 17:03:00
12:26 PM,80.6,69.8,70,30.18,10.0,SE,16.1,-,N/A,,Mostly Cloudy,130,2013-01-08 17:26:00
12:40 PM,82.4,71.6,70,30.17,10.0,ESE,15.0,-,N/A,,Mostly Cloudy,120,2013-01-08 17:40:00
12:53 PM,81.0,70.0,69,30.17,10.0,ESE,15.0,-,N/A,,Mostly Cloudy,110,2013-01-08 17:53:00
1:16 PM,80.6,69.8,70,30.16,10.0,ESE,15.0,-,N/A,,Mostly Cloudy,110,2013-01-08 18:16:00
1:24 PM,80.6,69.8,70,30.16,10.0,ESE,15.0,-,N/A,,Overcast,110,2013-01-08 18:24:00
1:53 PM,80.1,70.0,71,30.15,10.0,ESE,16.1,-,N/A,,Overcast,110,2013-01-08 18:53:00
2:53 PM,80.1,69.1,69,30.14,10.0,ESE,13.8,19.6,N/A,,Mostly Cloudy,120,2013-01-08 19:53:00
3:49 PM,80.6,69.8,70,30.15,10.0,ESE,15.0,-,N/A,,Scattered Clouds,120,2013-01-08 20:49:00
3:53 PM,79.0,69.1,72,30.15,10.0,ESE,12.7,-,N/A,,Mostly Cloudy,120,2013-01-08 20:53:00
4:14 PM,78.8,69.8,74,30.15,10.0,ESE,16.1,-,N/A,,Mostly Cloudy,110,2013-01-08 21:14:00
4:53 PM,78.1,70.0,76,30.16,10.0,ESE,11.5,-,N/A,,Mostly Cloudy,110,2013-01-08 21:53:00
5:15 PM,78.8,69.8,74,30.16,10.0,East,12.7,-,N/A,,Scattered Clouds,100,2013-01-08 22:15:00
5:53 PM,77.0,71.1,82,30.17,10.0,East,11.5,-,N/A,,Scattered Clouds,100,2013-01-08 22:53:00
6:53 PM,75.9,71.1,85,30.17,10.0,East,8.1,-,N/A,,Partly Cloudy,100,2013-01-08 23:53:00
7:53 PM,77.0,71.1,82,30.18,10.0,East,12.7,-,N/A,,Mostly Cloudy,90,2013-01-09 00:53:00
8:50 PM,77.0,71.6,83,30.18,10.0,East,10.4,-,N/A,,Mostly Cloudy,100,2013-01-09 01:50:00
8:53 PM,77.0,71.1,82,30.18,10.0,East,11.5,-,N/A,,Mostly Cloudy,100,2013-01-09 01:53:00
9:53 PM,73.9,70.0,87,30.19,10.0,East,11.5,25.3,0.01,Rain,Light Rain,90,2013-01-09 02:53:00
10:53 PM,75.0,71.1,87,30.19,10.0,ESE,8.1,-,0.00,,Overcast,110,2013-01-09 03:53:00